sensor_id;sensor_type;location;lat;lon;timestamp;temperature;humidity
26641;DHT22;14269;47.358;0.724;2023-07-13T00:00:59;22.0;50.0
26641;DHT22;14269;47.358;0.724;2023-07-13T00:03:35;22.0;50.0
26641;DHT22;14269;47.358;0.724;2023-07-13T00:06:12;22.0;51.0
26641;DHT22;14269;47.358;0.724;2023-07-13T00:08:44;22.0;49.0
26641;DHT22;14269;47.358;0.724;2023-07-13T00:11:16;22.0;51.0
26641;DHT22;14269;47.358;0.724;2023-07-13T00:13:47;22.0;51.0
26641;DHT22;14269;47.358;0.724;2023-07-13T00:16:19;22.0;50.0
26641;DHT22;14269;47.358;0.724;2023-07-13T00:18:50;22.0;48.0
26641;DHT22;14269;47.358;0.724;2023-07-13T00:21:33;22.0;51.0
26641;DHT22;14269;47.358;0.724;2023-07-13T00:24:16;22.0;51.0
26641;DHT22;14269;47.358;0.724;2023-07-13T00:26:56;22.0;50.0
26641;DHT22;14269;47.358;0.724;2023-07-13T00:29:28;22.0;51.0
26641;DHT22;14269;47.358;0.724;2023-07-13T00:32:10;22.0;51.0
26641;DHT22;14269;47.358;0.724;2023-07-13T00:34:51;22.0;50.0
26641;DHT22;14269;47.358;0.724;2023-07-13T00:37:23;22.0;51.0
26641;DHT22;14269;47.358;0.724;2023-07-13T00:39:54;22.0;51.0
26641;DHT22;14269;47.358;0.724;2023-07-13T00:42:26;22.0;52.0
26641;DHT22;14269;47.358;0.724;2023-07-13T00:45:04;21.0;51.0
26641;DHT22;14269;47.358;0.724;2023-07-13T00:47:40;22.0;53.0
26641;DHT22;14269;47.358;0.724;2023-07-13T00:50:13;22.0;53.0
26641;DHT22;14269;47.358;0.724;2023-07-13T00:52:54;22.0;52.0
26641;DHT22;14269;47.358;0.724;2023-07-13T00:55:35;22.0;52.0
26641;DHT22;14269;47.358;0.724;2023-07-13T00:58:06;22.0;49.0
26641;DHT22;14269;47.358;0.724;2023-07-13T01:00:38;21.0;53.0
26641;DHT22;14269;47.358;0.724;2023-07-13T01:03:20;22.0;51.0
26641;DHT22;14269;47.358;0.724;2023-07-13T01:05:53;21.0;52.0
26641;DHT22;14269;47.358;0.724;2023-07-13T01:08:33;21.0;51.0
26641;DHT22;14269;47.358;0.724;2023-07-13T01:11:05;21.0;52.0
26641;DHT22;14269;47.358;0.724;2023-07-13T01:13:36;22.0;52.0
26641;DHT22;14269;47.358;0.724;2023-07-13T01:16:21;21.0;49.0
26641;DHT22;14269;47.358;0.724;2023-07-13T01:19:01;21.0;52.0
26641;DHT22;14269;47.358;0.724;2023-07-13T01:21:42;22.0;53.0
26641;DHT22;14269;47.358;0.724;2023-07-13T01:24:23;21.0;52.0
26641;DHT22;14269;47.358;0.724;2023-07-13T01:26:55;21.0;52.0
26641;DHT22;14269;47.358;0.724;2023-07-13T01:29:26;21.0;54.0
26641;DHT22;14269;47.358;0.724;2023-07-13T01:32:00;22.0;53.0
26641;DHT22;14269;47.358;0.724;2023-07-13T01:34:42;21.0;52.0
26641;DHT22;14269;47.358;0.724;2023-07-13T01:37:22;21.0;51.0
26641;DHT22;14269;47.358;0.724;2023-07-13T01:39:53;21.0;54.0
26641;DHT22;14269;47.358;0.724;2023-07-13T01:42:25;22.0;53.0
26641;DHT22;14269;47.358;0.724;2023-07-13T01:44:56;21.0;52.0
26641;DHT22;14269;47.358;0.724;2023-07-13T01:47:30;22.0;54.0
26641;DHT22;14269;47.358;0.724;2023-07-13T01:50:10;22.0;52.0
26641;DHT22;14269;47.358;0.724;2023-07-13T01:52:42;22.0;52.0
26641;DHT22;14269;47.358;0.724;2023-07-13T01:55:14;22.0;54.0
26641;DHT22;14269;47.358;0.724;2023-07-13T01:57:45;22.0;53.0
26641;DHT22;14269;47.358;0.724;2023-07-13T02:00:17;22.0;54.0
26641;DHT22;14269;47.358;0.724;2023-07-13T02:02:48;22.0;53.0
26641;DHT22;14269;47.358;0.724;2023-07-13T02:05:20;22.0;53.0
26641;DHT22;14269;47.358;0.724;2023-07-13T02:07:52;22.0;53.0
26641;DHT22;14269;47.358;0.724;2023-07-13T02:10:33;22.0;53.0
26641;DHT22;14269;47.358;0.724;2023-07-13T02:13:06;21.0;52.0
26641;DHT22;14269;47.358;0.724;2023-07-13T02:15:50;21.0;54.0
26641;DHT22;14269;47.358;0.724;2023-07-13T02:18:28;21.0;51.0
26641;DHT22;14269;47.358;0.724;2023-07-13T02:21:00;21.0;54.0
26641;DHT22;14269;47.358;0.724;2023-07-13T02:23:32;22.0;54.0
26641;DHT22;14269;47.358;0.724;2023-07-13T02:26:04;22.0;52.0
26641;DHT22;14269;47.358;0.724;2023-07-13T02:28:35;22.0;54.0
26641;DHT22;14269;47.358;0.724;2023-07-13T02:31:08;22.0;53.0
26641;DHT22;14269;47.358;0.724;2023-07-13T02:33:48;22.0;54.0
26641;DHT22;14269;47.358;0.724;2023-07-13T02:36:20;22.0;53.0
26641;DHT22;14269;47.358;0.724;2023-07-13T02:38:52;22.0;53.0
26641;DHT22;14269;47.358;0.724;2023-07-13T02:41:23;21.0;52.0
26641;DHT22;14269;47.358;0.724;2023-07-13T02:44:02;21.0;52.0
26641;DHT22;14269;47.358;0.724;2023-07-13T02:46:37;21.0;55.0
26641;DHT22;14269;47.358;0.724;2023-07-13T02:49:08;21.0;54.0
26641;DHT22;14269;47.358;0.724;2023-07-13T02:51:40;21.0;53.0
26641;DHT22;14269;47.358;0.724;2023-07-13T02:54:13;21.0;55.0
26641;DHT22;14269;47.358;0.724;2023-07-13T02:56:53;21.0;54.0
26641;DHT22;14269;47.358;0.724;2023-07-13T02:59:25;21.0;54.0
26641;DHT22;14269;47.358;0.724;2023-07-13T03:01:57;21.0;55.0
26641;DHT22;14269;47.358;0.724;2023-07-13T03:04:28;21.0;56.0
26641;DHT22;14269;47.358;0.724;2023-07-13T03:07:00;21.0;52.0
26641;DHT22;14269;47.358;0.724;2023-07-13T03:09:33;21.0;55.0
26641;DHT22;14269;47.358;0.724;2023-07-13T03:12:13;21.0;55.0
26641;DHT22;14269;47.358;0.724;2023-07-13T03:14:45;21.0;55.0
26641;DHT22;14269;47.358;0.724;2023-07-13T03:17:17;21.0;54.0
26641;DHT22;14269;47.358;0.724;2023-07-13T03:19:51;21.0;55.0
26641;DHT22;14269;47.358;0.724;2023-07-13T03:22:31;21.0;54.0
26641;DHT22;14269;47.358;0.724;2023-07-13T03:25:12;21.0;56.0
26641;DHT22;14269;47.358;0.724;2023-07-13T03:27:43;21.0;54.0
26641;DHT22;14269;47.358;0.724;2023-07-13T03:30:15;20.0;54.0
26641;DHT22;14269;47.358;0.724;2023-07-13T03:32:47;20.0;57.0
26641;DHT22;14269;47.358;0.724;2023-07-13T03:35:18;21.0;56.0
26641;DHT22;14269;47.358;0.724;2023-07-13T03:37:51;21.0;55.0
26641;DHT22;14269;47.358;0.724;2023-07-13T03:40:22;21.0;55.0
26641;DHT22;14269;47.358;0.724;2023-07-13T03:42:53;21.0;55.0
26641;DHT22;14269;47.358;0.724;2023-07-13T03:45:25;21.0;54.0
26641;DHT22;14269;47.358;0.724;2023-07-13T03:47:57;20.0;54.0
26641;DHT22;14269;47.358;0.724;2023-07-13T03:50:28;20.0;55.0
26641;DHT22;14269;47.358;0.724;2023-07-13T03:53:00;20.0;55.0
26641;DHT22;14269;47.358;0.724;2023-07-13T03:55:32;19.0;56.0
26641;DHT22;14269;47.358;0.724;2023-07-13T03:58:26;19.0;57.0
26641;DHT22;14269;47.358;0.724;2023-07-13T04:01:07;19.0;56.0
26641;DHT22;14269;47.358;0.724;2023-07-13T04:03:47;19.0;56.0
26641;DHT22;14269;47.358;0.724;2023-07-13T04:06:22;19.0;57.0
26641;DHT22;14269;47.358;0.724;2023-07-13T04:09:02;19.0;57.0
26641;DHT22;14269;47.358;0.724;2023-07-13T04:11:42;19.0;57.0
26641;DHT22;14269;47.358;0.724;2023-07-13T04:14:14;19.0;57.0
26641;DHT22;14269;47.358;0.724;2023-07-13T04:16:46;19.0;57.0
26641;DHT22;14269;47.358;0.724;2023-07-13T04:19:17;19.0;58.0
26641;DHT22;14269;47.358;0.724;2023-07-13T04:21:49;19.0;58.0
26641;DHT22;14269;47.358;0.724;2023-07-13T04:24:20;19.0;58.0
26641;DHT22;14269;47.358;0.724;2023-07-13T04:26:52;19.0;59.0
26641;DHT22;14269;47.358;0.724;2023-07-13T04:29:24;19.0;59.0
26641;DHT22;14269;47.358;0.724;2023-07-13T04:31:55;19.0;59.0
26641;DHT22;14269;47.358;0.724;2023-07-13T04:34:27;19.0;59.0
26641;DHT22;14269;47.358;0.724;2023-07-13T04:36:59;19.0;59.0
26641;DHT22;14269;47.358;0.724;2023-07-13T04:39:30;19.0;59.0
26641;DHT22;14269;47.358;0.724;2023-07-13T04:42:02;19.0;59.0
26641;DHT22;14269;47.358;0.724;2023-07-13T04:44:33;19.0;59.0
26641;DHT22;14269;47.358;0.724;2023-07-13T04:47:05;18.0;60.0
26641;DHT22;14269;47.358;0.724;2023-07-13T04:49:37;18.0;60.0
26641;DHT22;14269;47.358;0.724;2023-07-13T04:52:08;18.0;60.0
26641;DHT22;14269;47.358;0.724;2023-07-13T04:54:41;19.0;60.0
26641;DHT22;14269;47.358;0.724;2023-07-13T04:57:22;19.0;59.0
26641;DHT22;14269;47.358;0.724;2023-07-13T04:59:53;19.0;60.0
26641;DHT22;14269;47.358;0.724;2023-07-13T05:02:26;19.0;60.0
26641;DHT22;14269;47.358;0.724;2023-07-13T05:05:07;19.0;60.0
26641;DHT22;14269;47.358;0.724;2023-07-13T05:07:38;19.0;60.0
26641;DHT22;14269;47.358;0.724;2023-07-13T05:10:10;19.0;60.0
26641;DHT22;14269;47.358;0.724;2023-07-13T05:12:42;19.0;59.0
26641;DHT22;14269;47.358;0.724;2023-07-13T05:15:14;19.0;59.0
26641;DHT22;14269;47.358;0.724;2023-07-13T05:17:45;19.0;59.0
26641;DHT22;14269;47.358;0.724;2023-07-13T05:20:18;19.0;60.0
26641;DHT22;14269;47.358;0.724;2023-07-13T05:22:58;19.0;59.0
26641;DHT22;14269;47.358;0.724;2023-07-13T05:25:30;19.0;59.0
26641;DHT22;14269;47.358;0.724;2023-07-13T05:28:02;19.0;60.0
26641;DHT22;14269;47.358;0.724;2023-07-13T05:30:33;19.0;60.0
26641;DHT22;14269;47.358;0.724;2023-07-13T05:33:05;19.0;60.0
26641;DHT22;14269;47.358;0.724;2023-07-13T05:35:37;19.0;59.0
26641;DHT22;14269;47.358;0.724;2023-07-13T05:38:08;19.0;59.0
26641;DHT22;14269;47.358;0.724;2023-07-13T05:40:42;19.0;59.0
26641;DHT22;14269;47.358;0.724;2023-07-13T05:43:22;19.0;59.0
26641;DHT22;14269;47.358;0.724;2023-07-13T05:45:55;19.0;59.0
26641;DHT22;14269;47.358;0.724;2023-07-13T05:48:35;19.0;60.0
26641;DHT22;14269;47.358;0.724;2023-07-13T05:51:07;19.0;60.0
26641;DHT22;14269;47.358;0.724;2023-07-13T05:53:38;19.0;60.0
26641;DHT22;14269;47.358;0.724;2023-07-13T05:56:10;20.0;59.0
26641;DHT22;14269;47.358;0.724;2023-07-13T05:58:42;20.0;59.0
26641;DHT22;14269;47.358;0.724;2023-07-13T06:01:15;20.0;59.0
26641;DHT22;14269;47.358;0.724;2023-07-13T06:03:55;20.0;59.0
26641;DHT22;14269;47.358;0.724;2023-07-13T06:06:27;20.0;59.0
26641;DHT22;14269;47.358;0.724;2023-07-13T06:08:58;20.0;59.0
26641;DHT22;14269;47.358;0.724;2023-07-13T06:11:30;20.0;58.0
26641;DHT22;14269;47.358;0.724;2023-07-13T06:14:02;20.0;58.0
26641;DHT22;14269;47.358;0.724;2023-07-13T06:16:44;20.0;58.0
26641;DHT22;14269;47.358;0.724;2023-07-13T06:19:16;20.0;59.0
26641;DHT22;14269;47.358;0.724;2023-07-13T06:21:47;20.0;59.0
26641;DHT22;14269;47.358;0.724;2023-07-13T06:24:18;20.0;59.0
26641;DHT22;14269;47.358;0.724;2023-07-13T06:26:50;20.0;59.0
26641;DHT22;14269;47.358;0.724;2023-07-13T06:29:22;20.0;59.0
26641;DHT22;14269;47.358;0.724;2023-07-13T06:31:54;20.0;58.0
26641;DHT22;14269;47.358;0.724;2023-07-13T06:34:25;20.0;58.0
26641;DHT22;14269;47.358;0.724;2023-07-13T06:36:57;20.0;58.0
26641;DHT22;14269;47.358;0.724;2023-07-13T06:39:28;20.0;58.0
26641;DHT22;14269;47.358;0.724;2023-07-13T06:42:00;20.0;59.0
26641;DHT22;14269;47.358;0.724;2023-07-13T06:44:32;20.0;59.0
26641;DHT22;14269;47.358;0.724;2023-07-13T06:47:04;20.0;59.0
26641;DHT22;14269;47.358;0.724;2023-07-13T06:49:35;21.0;58.0
26641;DHT22;14269;47.358;0.724;2023-07-13T06:52:07;21.0;57.0
26641;DHT22;14269;47.358;0.724;2023-07-13T06:54:38;21.0;57.0
26641;DHT22;14269;47.358;0.724;2023-07-13T06:57:10;21.0;56.0
26641;DHT22;14269;47.358;0.724;2023-07-13T06:59:41;21.0;57.0
26641;DHT22;14269;47.358;0.724;2023-07-13T07:02:13;21.0;57.0
26641;DHT22;14269;47.358;0.724;2023-07-13T07:04:45;22.0;56.0
26641;DHT22;14269;47.358;0.724;2023-07-13T07:07:16;22.0;56.0
26641;DHT22;14269;47.358;0.724;2023-07-13T07:09:48;22.0;56.0
26641;DHT22;14269;47.358;0.724;2023-07-13T07:12:20;22.0;54.0
26641;DHT22;14269;47.358;0.724;2023-07-13T07:14:51;22.0;55.0
26641;DHT22;14269;47.358;0.724;2023-07-13T07:17:23;22.0;54.0
26641;DHT22;14269;47.358;0.724;2023-07-13T07:20:06;22.0;54.0
26641;DHT22;14269;47.358;0.724;2023-07-13T07:22:47;23.0;54.0
26641;DHT22;14269;47.358;0.724;2023-07-13T07:25:19;23.0;53.0
26641;DHT22;14269;47.358;0.724;2023-07-13T07:27:50;23.0;52.0
26641;DHT22;14269;47.358;0.724;2023-07-13T07:30:21;23.0;52.0
26641;DHT22;14269;47.358;0.724;2023-07-13T07:32:53;24.0;51.0
26641;DHT22;14269;47.358;0.724;2023-07-13T07:35:25;24.0;51.0
26641;DHT22;14269;47.358;0.724;2023-07-13T07:37:56;23.0;52.0
26641;DHT22;14269;47.358;0.724;2023-07-13T07:40:28;23.0;51.0
26641;DHT22;14269;47.358;0.724;2023-07-13T07:43:00;23.0;51.0
26641;DHT22;14269;47.358;0.724;2023-07-13T07:45:31;24.0;51.0
26641;DHT22;14269;47.358;0.724;2023-07-13T07:48:03;23.0;51.0
26641;DHT22;14269;47.358;0.724;2023-07-13T07:50:35;23.0;51.0
26641;DHT22;14269;47.358;0.724;2023-07-13T07:53:16;23.0;52.0
26641;DHT22;14269;47.358;0.724;2023-07-13T07:55:48;23.0;51.0
26641;DHT22;14269;47.358;0.724;2023-07-13T07:58:20;23.0;51.0
26641;DHT22;14269;47.358;0.724;2023-07-13T08:00:51;24.0;51.0
26641;DHT22;14269;47.358;0.724;2023-07-13T08:03:23;24.0;50.0
26641;DHT22;14269;47.358;0.724;2023-07-13T08:05:55;24.0;49.0
26641;DHT22;14269;47.358;0.724;2023-07-13T08:08:26;24.0;49.0
26641;DHT22;14269;47.358;0.724;2023-07-13T08:11:02;25.0;49.0
26641;DHT22;14269;47.358;0.724;2023-07-13T08:13:40;24.0;47.0
26641;DHT22;14269;47.358;0.724;2023-07-13T08:16:11;24.0;48.0
26641;DHT22;14269;47.358;0.724;2023-07-13T08:18:43;24.0;49.0
26641;DHT22;14269;47.358;0.724;2023-07-13T08:21:15;25.0;47.0
26641;DHT22;14269;47.358;0.724;2023-07-13T08:23:46;25.0;46.0
26641;DHT22;14269;47.358;0.724;2023-07-13T08:26:18;24.0;47.0
26641;DHT22;14269;47.358;0.724;2023-07-13T08:28:50;24.0;47.0
26641;DHT22;14269;47.358;0.724;2023-07-13T08:31:21;24.0;47.0
26641;DHT22;14269;47.358;0.724;2023-07-13T08:33:53;25.0;46.0
26641;DHT22;14269;47.358;0.724;2023-07-13T08:36:25;25.0;47.0
26641;DHT22;14269;47.358;0.724;2023-07-13T08:39:06;25.0;46.0
26641;DHT22;14269;47.358;0.724;2023-07-13T08:41:38;25.0;45.0
26641;DHT22;14269;47.358;0.724;2023-07-13T08:44:20;25.0;46.0
26641;DHT22;14269;47.358;0.724;2023-07-13T08:47:02;26.0;45.0
26641;DHT22;14269;47.358;0.724;2023-07-13T08:49:34;26.0;44.0
26641;DHT22;14269;47.358;0.724;2023-07-13T08:52:09;24.0;45.0
26641;DHT22;14269;47.358;0.724;2023-07-13T08:54:50;24.0;46.0
26641;DHT22;14269;47.358;0.724;2023-07-13T08:57:32;25.0;45.0
26641;DHT22;14269;47.358;0.724;2023-07-13T09:00:12;26.0;44.0
26641;DHT22;14269;47.358;0.724;2023-07-13T09:02:55;26.0;43.0
26641;DHT22;14269;47.358;0.724;2023-07-13T09:05:38;25.0;43.0
26641;DHT22;14269;47.358;0.724;2023-07-13T09:08:27;24.0;46.0
26641;DHT22;14269;47.358;0.724;2023-07-13T09:11:17;25.0;44.0
26641;DHT22;14269;47.358;0.724;2023-07-13T09:13:54;26.0;41.0
26641;DHT22;14269;47.358;0.724;2023-07-13T09:16:31;26.0;40.0
26641;DHT22;14269;47.358;0.724;2023-07-13T09:19:17;25.0;42.0
26641;DHT22;14269;47.358;0.724;2023-07-13T09:21:56;26.0;42.0
26641;DHT22;14269;47.358;0.724;2023-07-13T09:24:38;26.0;41.0
26641;DHT22;14269;47.358;0.724;2023-07-13T09:27:23;26.0;41.0
26641;DHT22;14269;47.358;0.724;2023-07-13T09:30:11;26.0;41.0
26641;DHT22;14269;47.358;0.724;2023-07-13T09:32:53;26.0;40.0
26641;DHT22;14269;47.358;0.724;2023-07-13T09:35:35;26.0;40.0
26641;DHT22;14269;47.358;0.724;2023-07-13T09:38:17;26.0;40.0
26641;DHT22;14269;47.358;0.724;2023-07-13T09:41:02;25.0;41.0
26641;DHT22;14269;47.358;0.724;2023-07-13T09:43:38;24.0;42.0
26641;DHT22;14269;47.358;0.724;2023-07-13T09:46:21;25.0;41.0
26641;DHT22;14269;47.358;0.724;2023-07-13T09:49:02;26.0;41.0
26641;DHT22;14269;47.358;0.724;2023-07-13T09:51:34;26.0;40.0
26641;DHT22;14269;47.358;0.724;2023-07-13T09:54:05;26.0;39.0
26641;DHT22;14269;47.358;0.724;2023-07-13T09:56:37;27.0;37.0
26641;DHT22;14269;47.358;0.724;2023-07-13T09:59:19;27.0;37.0
26641;DHT22;14269;47.358;0.724;2023-07-13T10:01:50;27.0;35.0
26641;DHT22;14269;47.358;0.724;2023-07-13T10:04:27;26.0;36.0
26641;DHT22;14269;47.358;0.724;2023-07-13T10:07:06;27.0;36.0
26641;DHT22;14269;47.358;0.724;2023-07-13T10:09:46;28.0;34.0
26641;DHT22;14269;47.358;0.724;2023-07-13T10:12:29;28.0;33.0
26641;DHT22;14269;47.358;0.724;2023-07-13T10:15:15;28.0;34.0
26641;DHT22;14269;47.358;0.724;2023-07-13T10:17:52;28.0;34.0
26641;DHT22;14269;47.358;0.724;2023-07-13T10:20:32;28.0;35.0
26641;DHT22;14269;47.358;0.724;2023-07-13T10:23:05;28.0;33.0
26641;DHT22;14269;47.358;0.724;2023-07-13T10:25:46;28.0;32.0
26641;DHT22;14269;47.358;0.724;2023-07-13T10:28:31;27.0;34.0
26641;DHT22;14269;47.358;0.724;2023-07-13T10:31:12;27.0;35.0
26641;DHT22;14269;47.358;0.724;2023-07-13T10:33:51;26.0;36.0
26641;DHT22;14269;47.358;0.724;2023-07-13T10:36:31;26.0;37.0
26641;DHT22;14269;47.358;0.724;2023-07-13T10:39:05;26.0;37.0
26641;DHT22;14269;47.358;0.724;2023-07-13T10:41:49;26.0;37.0
26641;DHT22;14269;47.358;0.724;2023-07-13T10:44:29;26.0;37.0
26641;DHT22;14269;47.358;0.724;2023-07-13T10:47:18;26.0;39.0
26641;DHT22;14269;47.358;0.724;2023-07-13T10:49:54;26.0;38.0
26641;DHT22;14269;47.358;0.724;2023-07-13T10:52:44;25.0;39.0
26641;DHT22;14269;47.358;0.724;2023-07-13T10:55:37;26.0;39.0
26641;DHT22;14269;47.358;0.724;2023-07-13T10:58:19;26.0;38.0
26641;DHT22;14269;47.358;0.724;2023-07-13T11:01:06;26.0;38.0
26641;DHT22;14269;47.358;0.724;2023-07-13T11:03:53;26.0;37.0
26641;DHT22;14269;47.358;0.724;2023-07-13T11:06:37;27.0;35.0
26641;DHT22;14269;47.358;0.724;2023-07-13T11:09:36;28.0;33.0
26641;DHT22;14269;47.358;0.724;2023-07-13T11:14:43;29.0;33.0
26641;DHT22;14269;47.358;0.724;2023-07-13T11:17:45;29.0;31.0
26641;DHT22;14269;47.358;0.724;2023-07-13T11:20:30;28.0;31.0
26641;DHT22;14269;47.358;0.724;2023-07-13T11:23:27;28.0;32.0
26641;DHT22;14269;47.358;0.724;2023-07-13T11:26:38;29.0;31.0
26641;DHT22;14269;47.358;0.724;2023-07-13T11:29:25;29.0;30.0
26641;DHT22;14269;47.358;0.724;2023-07-13T11:32:00;27.0;33.0
26641;DHT22;14269;47.358;0.724;2023-07-13T11:34:41;27.0;34.0
26641;DHT22;14269;47.358;0.724;2023-07-13T11:37:15;27.0;35.0
26641;DHT22;14269;47.358;0.724;2023-07-13T11:39:54;26.0;35.0
26641;DHT22;14269;47.358;0.724;2023-07-13T11:42:26;26.0;35.0
26641;DHT22;14269;47.358;0.724;2023-07-13T11:44:59;26.0;36.0
26641;DHT22;14269;47.358;0.724;2023-07-13T11:47:40;26.0;36.0
26641;DHT22;14269;47.358;0.724;2023-07-13T11:50:23;26.0;35.0
26641;DHT22;14269;47.358;0.724;2023-07-13T11:53:04;27.0;34.0
26641;DHT22;14269;47.358;0.724;2023-07-13T11:55:45;27.0;34.0
26641;DHT22;14269;47.358;0.724;2023-07-13T11:58:28;27.0;34.0
26641;DHT22;14269;47.358;0.724;2023-07-13T12:01:17;27.0;34.0
26641;DHT22;14269;47.358;0.724;2023-07-13T12:03:51;27.0;34.0
26641;DHT22;14269;47.358;0.724;2023-07-13T12:06:33;27.0;33.0
26641;DHT22;14269;47.358;0.724;2023-07-13T12:09:15;28.0;34.0
26641;DHT22;14269;47.358;0.724;2023-07-13T12:11:56;27.0;35.0
26641;DHT22;14269;47.358;0.724;2023-07-13T12:14:37;27.0;35.0
26641;DHT22;14269;47.358;0.724;2023-07-13T12:17:11;27.0;34.0
26641;DHT22;14269;47.358;0.724;2023-07-13T12:19:52;27.0;35.0
26641;DHT22;14269;47.358;0.724;2023-07-13T12:22:34;27.0;34.0
26641;DHT22;14269;47.358;0.724;2023-07-13T12:25:15;26.0;35.0
26641;DHT22;14269;47.358;0.724;2023-07-13T12:27:55;26.0;35.0
26641;DHT22;14269;47.358;0.724;2023-07-13T12:30:31;26.0;35.0
26641;DHT22;14269;47.358;0.724;2023-07-13T12:33:11;26.0;35.0
26641;DHT22;14269;47.358;0.724;2023-07-13T12:35:53;26.0;36.0
26641;DHT22;14269;47.358;0.724;2023-07-13T12:38:32;26.0;36.0
26641;DHT22;14269;47.358;0.724;2023-07-13T12:41:05;26.0;37.0
26641;DHT22;14269;47.358;0.724;2023-07-13T12:43:46;26.0;36.0
26641;DHT22;14269;47.358;0.724;2023-07-13T12:46:20;27.0;36.0
26641;DHT22;14269;47.358;0.724;2023-07-13T12:48:59;27.0;35.0
26641;DHT22;14269;47.358;0.724;2023-07-13T12:51:31;27.0;36.0
26641;DHT22;14269;47.358;0.724;2023-07-13T12:54:16;27.0;35.0
26641;DHT22;14269;47.358;0.724;2023-07-13T12:56:58;27.0;35.0
26641;DHT22;14269;47.358;0.724;2023-07-13T12:59:36;27.0;36.0
26641;DHT22;14269;47.358;0.724;2023-07-13T13:02:26;27.0;36.0
26641;DHT22;14269;47.358;0.724;2023-07-13T13:05:00;27.0;35.0
26641;DHT22;14269;47.358;0.724;2023-07-13T13:07:42;28.0;33.0
26641;DHT22;14269;47.358;0.724;2023-07-13T13:10:14;28.0;34.0
26641;DHT22;14269;47.358;0.724;2023-07-13T13:12:55;27.0;35.0
26641;DHT22;14269;47.358;0.724;2023-07-13T13:15:26;27.0;35.0
26641;DHT22;14269;47.358;0.724;2023-07-13T13:17:58;27.0;35.0
26641;DHT22;14269;47.358;0.724;2023-07-13T13:20:30;27.0;36.0
26641;DHT22;14269;47.358;0.724;2023-07-13T13:23:01;27.0;35.0
26641;DHT22;14269;47.358;0.724;2023-07-13T13:25:33;28.0;35.0
26641;DHT22;14269;47.358;0.724;2023-07-13T13:28:17;28.0;33.0
26641;DHT22;14269;47.358;0.724;2023-07-13T13:30:56;28.0;33.0
26641;DHT22;14269;47.358;0.724;2023-07-13T13:33:28;28.0;33.0
26641;DHT22;14269;47.358;0.724;2023-07-13T13:36:15;28.0;34.0
26641;DHT22;14269;47.358;0.724;2023-07-13T13:38:52;28.0;33.0
26641;DHT22;14269;47.358;0.724;2023-07-13T13:41:23;28.0;33.0
26641;DHT22;14269;47.358;0.724;2023-07-13T13:43:55;28.0;33.0
26641;DHT22;14269;47.358;0.724;2023-07-13T13:46:28;29.0;32.0
26641;DHT22;14269;47.358;0.724;2023-07-13T13:49:12;29.0;33.0
26641;DHT22;14269;47.358;0.724;2023-07-13T13:51:50;29.0;32.0
26641;DHT22;14269;47.358;0.724;2023-07-13T13:54:23;28.0;33.0
26641;DHT22;14269;47.358;0.724;2023-07-13T13:57:05;27.0;34.0
26641;DHT22;14269;47.358;0.724;2023-07-13T13:59:45;27.0;35.0
26641;DHT22;14269;47.358;0.724;2023-07-13T14:02:22;27.0;35.0
26641;DHT22;14269;47.358;0.724;2023-07-13T14:05:00;27.0;36.0
26641;DHT22;14269;47.358;0.724;2023-07-13T14:07:40;27.0;37.0
26641;DHT22;14269;47.358;0.724;2023-07-13T14:10:14;27.0;36.0
26641;DHT22;14269;47.358;0.724;2023-07-13T14:12:56;27.0;36.0
26641;DHT22;14269;47.358;0.724;2023-07-13T14:15:35;27.0;36.0
26641;DHT22;14269;47.358;0.724;2023-07-13T14:18:08;27.0;36.0
26641;DHT22;14269;47.358;0.724;2023-07-13T14:20:50;28.0;36.0
26641;DHT22;14269;47.358;0.724;2023-07-13T14:23:31;27.0;35.0
26641;DHT22;14269;47.358;0.724;2023-07-13T14:26:06;27.0;35.0
26641;DHT22;14269;47.358;0.724;2023-07-13T14:28:47;27.0;36.0
26641;DHT22;14269;47.358;0.724;2023-07-13T14:31:28;27.0;34.0
26641;DHT22;14269;47.358;0.724;2023-07-13T14:34:09;27.0;34.0
26641;DHT22;14269;47.358;0.724;2023-07-13T14:36:50;27.0;35.0
26641;DHT22;14269;47.358;0.724;2023-07-13T14:39:31;28.0;34.0
26641;DHT22;14269;47.358;0.724;2023-07-13T14:42:03;27.0;35.0
26641;DHT22;14269;47.358;0.724;2023-07-13T14:44:34;27.0;35.0
26641;DHT22;14269;47.358;0.724;2023-07-13T14:47:07;27.0;34.0
26641;DHT22;14269;47.358;0.724;2023-07-13T14:49:48;27.0;34.0
26641;DHT22;14269;47.358;0.724;2023-07-13T14:52:22;27.0;34.0
26641;DHT22;14269;47.358;0.724;2023-07-13T14:55:01;26.0;35.0
26641;DHT22;14269;47.358;0.724;2023-07-13T14:57:33;27.0;34.0
26641;DHT22;14269;47.358;0.724;2023-07-13T15:00:11;28.0;34.0
26641;DHT22;14269;47.358;0.724;2023-07-13T15:02:48;28.0;34.0
26641;DHT22;14269;47.358;0.724;2023-07-13T15:05:30;28.0;34.0
26641;DHT22;14269;47.358;0.724;2023-07-13T15:08:11;28.0;34.0
26641;DHT22;14269;47.358;0.724;2023-07-13T15:10:52;28.0;34.0
26641;DHT22;14269;47.358;0.724;2023-07-13T15:13:24;28.0;33.0
26641;DHT22;14269;47.358;0.724;2023-07-13T15:15:55;28.0;32.0
26641;DHT22;14269;47.358;0.724;2023-07-13T15:18:28;27.0;34.0
26641;DHT22;14269;47.358;0.724;2023-07-13T15:21:10;27.0;34.0
26641;DHT22;14269;47.358;0.724;2023-07-13T15:23:51;27.0;34.0
26641;DHT22;14269;47.358;0.724;2023-07-13T15:26:32;26.0;35.0
26641;DHT22;14269;47.358;0.724;2023-07-13T15:29:04;27.0;35.0
26641;DHT22;14269;47.358;0.724;2023-07-13T15:31:36;27.0;35.0
26641;DHT22;14269;47.358;0.724;2023-07-13T15:34:22;27.0;34.0
26641;DHT22;14269;47.358;0.724;2023-07-13T15:37:01;27.0;34.0
26641;DHT22;14269;47.358;0.724;2023-07-13T15:39:40;27.0;34.0
26641;DHT22;14269;47.358;0.724;2023-07-13T15:42:15;26.0;34.0
26641;DHT22;14269;47.358;0.724;2023-07-13T15:44:54;27.0;36.0
26641;DHT22;14269;47.358;0.724;2023-07-13T15:47:25;27.0;35.0
26641;DHT22;14269;47.358;0.724;2023-07-13T15:49:58;27.0;36.0
26641;DHT22;14269;47.358;0.724;2023-07-13T15:52:39;26.0;37.0
26641;DHT22;14269;47.358;0.724;2023-07-13T15:55:12;26.0;36.0
26641;DHT22;14269;47.358;0.724;2023-07-13T15:57:52;26.0;37.0
26641;DHT22;14269;47.358;0.724;2023-07-13T16:00:26;26.0;37.0
26641;DHT22;14269;47.358;0.724;2023-07-13T16:03:06;26.0;37.0
26641;DHT22;14269;47.358;0.724;2023-07-13T16:05:48;27.0;36.0
26641;DHT22;14269;47.358;0.724;2023-07-13T16:08:31;27.0;37.0
26641;DHT22;14269;47.358;0.724;2023-07-13T16:11:18;27.0;37.0
26641;DHT22;14269;47.358;0.724;2023-07-13T16:13:54;26.0;37.0
26641;DHT22;14269;47.358;0.724;2023-07-13T16:16:35;26.0;38.0
26641;DHT22;14269;47.358;0.724;2023-07-13T16:19:06;26.0;38.0
26641;DHT22;14269;47.358;0.724;2023-07-13T16:21:50;26.0;37.0
26641;DHT22;14269;47.358;0.724;2023-07-13T16:24:31;26.0;37.0
26641;DHT22;14269;47.358;0.724;2023-07-13T16:27:13;26.0;37.0
26641;DHT22;14269;47.358;0.724;2023-07-13T16:29:53;27.0;37.0
26641;DHT22;14269;47.358;0.724;2023-07-13T16:32:25;27.0;37.0
26641;DHT22;14269;47.358;0.724;2023-07-13T16:35:08;26.0;37.0
26641;DHT22;14269;47.358;0.724;2023-07-13T16:37:49;26.0;38.0
26641;DHT22;14269;47.358;0.724;2023-07-13T16:40:31;26.0;38.0
26641;DHT22;14269;47.358;0.724;2023-07-13T16:43:14;26.0;38.0
26641;DHT22;14269;47.358;0.724;2023-07-13T16:45:55;26.0;39.0
26641;DHT22;14269;47.358;0.724;2023-07-13T16:48:35;26.0;39.0
26641;DHT22;14269;47.358;0.724;2023-07-13T16:51:07;26.0;38.0
26641;DHT22;14269;47.358;0.724;2023-07-13T16:53:40;26.0;38.0
26641;DHT22;14269;47.358;0.724;2023-07-13T16:56:21;26.0;37.0
26641;DHT22;14269;47.358;0.724;2023-07-13T16:59:08;26.0;38.0
26641;DHT22;14269;47.358;0.724;2023-07-13T17:01:44;26.0;38.0
26641;DHT22;14269;47.358;0.724;2023-07-13T17:04:27;26.0;39.0